createdAt,value
2018-07-19T00:00:46.227Z,24.9
2018-07-19T00:01:51.413Z,24.9
2018-07-19T00:02:56.885Z,24.9
2018-07-19T00:04:02.276Z,24.9
2018-07-19T00:05:10.451Z,24.9
2018-07-19T00:06:19.672Z,24.9
2018-07-19T00:07:24.966Z,24.9
2018-07-19T00:08:30.110Z,24.9
2018-07-19T00:09:35.763Z,24.9
2018-07-19T00:10:44.652Z,24.9
2018-07-19T00:11:49.838Z,24.9
2018-07-19T00:12:55.514Z,24.9
2018-07-19T00:14:00.944Z,24.9
2018-07-19T00:15:08.148Z,24.9
2018-07-19T00:16:15.152Z,24.9
2018-07-19T00:17:20.623Z,24.9
2018-07-19T00:18:26.604Z,24.9
2018-07-19T00:19:31.495Z,24.9
2018-07-19T00:20:39.484Z,24.9
2018-07-19T00:21:47.909Z,24.9
2018-07-19T00:22:53.070Z,24.9
2018-07-19T00:23:57.683Z,24.9
2018-07-19T00:25:03.118Z,24.9
2018-07-19T00:26:10.173Z,24.9
2018-07-19T00:27:19.275Z,24.9
2018-07-19T00:28:24.542Z,24.9
2018-07-19T00:29:29.969Z,24.9
2018-07-19T00:30:35.690Z,24.9
2018-07-19T00:31:40.433Z,24.9
2018-07-19T00:32:47.639Z,24.9
2018-07-19T00:33:53.328Z,24.9
2018-07-19T00:34:59.475Z,24.9
2018-07-19T00:36:04.618Z,24.9
2018-07-19T00:37:11.410Z,24.9
2018-07-19T00:38:19.267Z,24.9
2018-07-19T00:40:44.808Z,24.8
2018-07-19T00:41:50.050Z,24.8
2018-07-19T00:42:55.744Z,24.8
2018-07-19T00:44:01.845Z,24.8
2018-07-19T00:45:08.862Z,24.8
2018-07-19T00:46:14.282Z,24.8
2018-07-19T00:47:19.263Z,24.8
2018-07-19T00:49:44.517Z,24.8
2018-07-19T00:50:50.214Z,24.8
2018-07-19T00:51:58.940Z,24.8
2018-07-19T00:53:04.447Z,24.8
2018-07-19T00:54:09.883Z,24.8
2018-07-19T00:55:15.385Z,24.8
2018-07-19T00:56:20.318Z,24.8
2018-07-19T00:57:28.985Z,24.8
2018-07-19T00:58:34.550Z,24.8
2018-07-19T00:59:39.703Z,24.8
2018-07-19T01:00:45.175Z,24.8
2018-07-19T01:01:50.093Z,24.8
2018-07-19T01:02:57.875Z,24.8
2018-07-19T01:04:05.144Z,24.8
2018-07-19T01:05:09.730Z,24.9
2018-07-19T01:06:14.951Z,24.8
2018-07-19T01:07:20.074Z,24.9
2018-07-19T01:08:28.035Z,24.8
2018-07-19T01:09:36.518Z,24.8
2018-07-19T01:10:41.736Z,24.8
2018-07-19T01:11:46.959Z,24.8
2018-07-19T01:12:52.642Z,24.8
2018-07-19T01:14:00.591Z,24.8
2018-07-19T01:15:05.533Z,24.8
2018-07-19T01:16:10.407Z,24.8
2018-07-19T01:17:15.552Z,24.8
2018-07-19T01:18:24.118Z,24.8
2018-07-19T01:19:33.066Z,24.8
2018-07-19T01:20:38.226Z,24.8
2018-07-19T01:21:44.105Z,24.8
2018-07-19T01:22:49.256Z,24.8
2018-07-19T01:23:58.489Z,24.8
2018-07-19T01:25:03.882Z,24.8
2018-07-19T01:26:08.494Z,24.8
2018-07-19T01:27:15.780Z,24.8
2018-07-19T01:28:24.437Z,24.8
2018-07-19T01:29:29.926Z,24.8
2018-07-19T01:30:35.319Z,24.8
2018-07-19T01:31:40.774Z,24.8
2018-07-19T01:32:45.959Z,24.8
2018-07-19T01:33:55.142Z,24.8
2018-07-19T01:35:00.001Z,24.8
2018-07-19T01:36:04.954Z,24.8
2018-07-19T01:37:09.836Z,24.8
2018-07-19T01:38:15.293Z,24.8
2018-07-19T01:39:20.725Z,24.8
2018-07-19T01:40:29.195Z,24.8
2018-07-19T01:41:35.589Z,24.8
2018-07-19T01:42:40.576Z,24.8
2018-07-19T01:43:46.107Z,24.8
2018-07-19T01:44:52.963Z,24.8
2018-07-19T01:46:01.200Z,24.8
2018-07-19T01:47:05.806Z,24.8
2018-07-19T01:48:10.984Z,24.8
2018-07-19T01:49:18.991Z,24.8
2018-07-19T01:50:27.662Z,24.8
2018-07-19T01:51:32.660Z,24.8
2018-07-19T01:52:37.256Z,24.8
2018-07-19T01:53:45.519Z,24.8
2018-07-19T01:54:52.200Z,24.8
2018-07-19T01:55:57.653Z,24.8
2018-07-19T01:57:02.519Z,24.8
2018-07-19T01:58:10.439Z,24.8
2018-07-19T01:59:16.816Z,24.8
2018-07-19T02:00:22.269Z,24.8
2018-07-19T02:01:42.615Z,24.8
2018-07-19T02:02:47.879Z,24.8
2018-07-19T02:03:55.766Z,24.8
2018-07-19T02:05:00.379Z,24.8
2018-07-19T02:06:05.553Z,24.8
2018-07-19T02:07:11.379Z,24.8
2018-07-19T02:08:21.035Z,24.8
2018-07-19T02:09:27.398Z,24.8
2018-07-19T02:10:32.270Z,24.8
2018-07-19T02:11:37.708Z,24.8
2018-07-19T02:12:44.014Z,24.8
2018-07-19T02:13:52.399Z,24.8
2018-07-19T02:14:57.387Z,24.8
2018-07-19T02:16:03.134Z,24.8
2018-07-19T02:17:08.003Z,24.8
2018-07-19T02:18:17.543Z,24.8
2018-07-19T02:19:22.782Z,24.8
2018-07-19T02:20:27.947Z,24.8
2018-07-19T02:21:33.417Z,24.8
2018-07-19T02:22:41.604Z,24.8
2018-07-19T02:23:46.762Z,24.8
2018-07-19T02:24:51.881Z,24.8
2018-07-19T02:25:57.028Z,24.8
2018-07-19T02:27:04.807Z,24.8
2018-07-19T02:28:09.960Z,24.8
2018-07-19T02:29:14.845Z,24.8
2018-07-19T02:30:20.021Z,24.8
2018-07-19T02:31:28.276Z,24.8
2018-07-19T02:32:33.214Z,24.8
2018-07-19T02:33:38.892Z,24.8
2018-07-19T02:34:45.310Z,24.8
2018-07-19T02:35:53.678Z,24.8
2018-07-19T02:36:58.819Z,24.8
2018-07-19T02:38:04.296Z,24.8
2018-07-19T02:39:09.161Z,24.8
2018-07-19T02:40:18.397Z,24.8
2018-07-19T02:41:23.266Z,24.8
2018-07-19T02:42:28.683Z,24.7
2018-07-19T02:43:33.876Z,24.8
2018-07-19T02:44:41.712Z,24.8
2018-07-19T02:45:47.181Z,24.8
2018-07-19T02:46:52.034Z,24.7
2018-07-19T02:47:57.172Z,24.7
2018-07-19T02:49:06.379Z,24.8
2018-07-19T02:50:12.430Z,24.7
2018-07-19T02:51:17.892Z,24.7
2018-07-19T02:52:23.603Z,24.8
2018-07-19T02:53:31.735Z,24.8
2018-07-19T02:54:39.083Z,24.7
2018-07-19T02:55:44.251Z,24.7
2018-07-19T02:56:49.674Z,24.7
2018-07-19T02:57:55.961Z,24.7
2018-07-19T02:59:02.725Z,24.7
2018-07-19T03:00:07.879Z,24.7
2018-07-19T03:01:13.011Z,24.8
2018-07-19T03:02:18.470Z,24.8
2018-07-19T03:03:27.198Z,24.8
2018-07-19T03:04:35.044Z,24.7
2018-07-19T03:05:40.515Z,24.7
2018-07-19T03:06:45.949Z,24.7
2018-07-19T03:07:51.483Z,24.7
2018-07-19T03:09:00.529Z,24.7
2018-07-19T03:10:05.163Z,24.7
2018-07-19T03:11:10.319Z,24.7
2018-07-19T03:12:15.771Z,24.7
2018-07-19T03:13:25.722Z,24.7
2018-07-19T03:14:30.621Z,24.7
2018-07-19T03:15:35.921Z,24.7
2018-07-19T03:16:40.815Z,24.7
2018-07-19T03:17:49.098Z,24.7
2018-07-19T03:18:54.042Z,24.7
2018-07-19T03:19:59.265Z,24.7
2018-07-19T03:21:04.463Z,24.7
2018-07-19T03:22:11.850Z,24.7
2018-07-19T03:23:17.697Z,24.7
2018-07-19T03:24:22.857Z,24.7
2018-07-19T03:25:29.372Z,24.7
2018-07-19T03:26:36.701Z,24.7
2018-07-19T03:27:45.262Z,24.7
2018-07-19T03:28:50.187Z,24.7
2018-07-19T03:29:55.332Z,24.7
2018-07-19T03:31:00.948Z,24.7
2018-07-19T03:32:09.063Z,24.7
2018-07-19T03:33:14.493Z,24.7
2018-07-19T03:34:19.662Z,24.7
2018-07-19T03:35:24.915Z,24.7
2018-07-19T03:36:32.564Z,24.7
2018-07-19T03:37:37.703Z,24.7
2018-07-19T03:38:42.926Z,24.7
2018-07-19T03:39:48.476Z,24.7
2018-07-19T03:40:57.039Z,24.7
2018-07-19T03:42:01.916Z,24.7
2018-07-19T03:43:06.698Z,24.7
2018-07-19T03:44:11.599Z,24.7
2018-07-19T03:45:19.325Z,24.7
2018-07-19T03:46:25.009Z,24.7
2018-07-19T03:47:30.160Z,24.7
2018-07-19T03:48:35.961Z,24.7
2018-07-19T03:49:44.772Z,24.7
2018-07-19T03:50:50.218Z,24.7
2018-07-19T03:51:55.708Z,24.7
2018-07-19T03:53:00.560Z,24.7
2018-07-19T03:54:06.099Z,24.6
2018-07-19T03:55:11.546Z,24.7
2018-07-19T03:56:16.416Z,24.7
2018-07-19T03:57:23.569Z,24.7
2018-07-19T03:58:31.983Z,24.7
2018-07-19T03:59:37.159Z,24.6
2018-07-19T04:00:42.826Z,24.7
2018-07-19T04:01:48.300Z,24.6
2018-07-19T04:02:55.823Z,24.6
2018-07-19T04:04:01.745Z,24.6
2018-07-19T04:05:07.381Z,24.6
2018-07-19T04:06:12.904Z,24.6
2018-07-19T04:07:21.121Z,24.6
2018-07-19T04:08:26.305Z,24.5
2018-07-19T04:09:31.821Z,24.5
2018-07-19T04:10:37.330Z,24.5
2018-07-19T04:11:45.892Z,24.4
2018-07-19T04:12:50.905Z,24.4
2018-07-19T04:13:55.846Z,24.4
2018-07-19T04:15:01.305Z,24.4
2018-07-19T04:16:06.714Z,24.3
2018-07-19T04:17:13.868Z,24.3
2018-07-19T04:18:19.352Z,24.3
2018-07-19T04:19:25.095Z,24.3
2018-07-19T04:20:29.979Z,24.2
2018-07-19T04:21:37.913Z,24.2
2018-07-19T04:22:46.230Z,24.1
2018-07-19T04:23:51.431Z,24.1
2018-07-19T04:24:57.202Z,24.1
2018-07-19T04:26:02.849Z,24.1
2018-07-19T04:27:10.555Z,24.1
2018-07-19T04:28:15.700Z,24.1
2018-07-19T04:29:21.129Z,24
2018-07-19T04:30:26.780Z,24
2018-07-19T04:31:32.229Z,24
2018-07-19T04:32:39.298Z,23.9
2018-07-19T04:33:45.015Z,23.9
2018-07-19T04:34:49.900Z,23.9
2018-07-19T04:35:55.373Z,23.9
2018-07-19T04:37:03.652Z,23.9
2018-07-19T04:38:12.150Z,23.8
2018-07-19T04:39:17.978Z,23.8
2018-07-19T04:40:23.674Z,23.8
2018-07-19T04:41:28.828Z,23.8
2018-07-19T04:42:38.689Z,23.8
2018-07-19T04:43:43.942Z,23.7
2018-07-19T04:44:49.092Z,23.7
2018-07-19T04:45:53.907Z,23.7
2018-07-19T04:46:59.906Z,23.7
2018-07-19T04:48:08.873Z,23.7
2018-07-19T04:49:14.856Z,23.6
2018-07-19T04:50:19.748Z,23.6
2018-07-19T04:52:45.008Z,23.6
2018-07-19T04:53:51.850Z,23.6
2018-07-19T04:54:56.738Z,23.5
2018-07-19T04:56:02.282Z,23.5
2018-07-19T04:57:06.892Z,23.5
2018-07-19T04:58:14.916Z,23.5
2018-07-19T04:59:20.764Z,23.5
2018-07-19T05:00:26.120Z,23.5
2018-07-19T05:01:30.987Z,23.4
2018-07-19T05:02:39.146Z,23.4
2018-07-19T05:03:46.523Z,23.4
2018-07-19T05:04:51.675Z,23.4
2018-07-19T05:05:56.941Z,23.4
2018-07-19T05:07:02.346Z,23.3
2018-07-19T05:08:10.076Z,23.4
2018-07-19T05:09:17.892Z,23.3
2018-07-19T05:10:23.028Z,23.3
2018-07-19T05:11:27.924Z,23.3
2018-07-19T05:12:33.605Z,23.3
2018-07-19T05:13:42.475Z,23.3
2018-07-19T05:14:47.352Z,23.3
2018-07-19T05:15:52.860Z,23.2
2018-07-19T05:16:58.024Z,23.2
2018-07-19T05:18:04.070Z,23.2
2018-07-19T05:19:12.175Z,23.2
2018-07-19T05:20:17.682Z,23.2
2018-07-19T05:21:23.246Z,23.2
2018-07-19T05:22:29.298Z,23.2
2018-07-19T05:23:34.728Z,23.2
2018-07-19T05:24:44.050Z,23.2
2018-07-19T05:25:48.634Z,23.1
2018-07-19T05:26:53.901Z,23.1
2018-07-19T05:27:58.725Z,23.1
2018-07-19T05:29:06.481Z,23.1
2018-07-19T05:30:12.122Z,23.1
2018-07-19T05:31:17.631Z,23.1
2018-07-19T05:32:23.066Z,23.1
2018-07-19T05:33:30.206Z,23.1
2018-07-19T05:34:38.977Z,23
2018-07-19T05:35:44.932Z,23
2018-07-19T05:36:50.635Z,23
2018-07-19T05:37:55.842Z,23
2018-07-19T05:39:02.311Z,23
2018-07-19T05:40:07.825Z,23
2018-07-19T05:41:12.979Z,23
2018-07-19T05:42:18.180Z,23
2018-07-19T05:43:24.321Z,23
2018-07-19T05:44:32.235Z,23
2018-07-19T05:45:40.311Z,23
2018-07-19T05:46:45.478Z,23
2018-07-19T05:47:50.635Z,22.9
2018-07-19T05:48:56.199Z,22.9
2018-07-19T05:50:01.697Z,22.9
2018-07-19T05:51:10.422Z,22.9
2018-07-19T05:52:15.290Z,22.9
2018-07-19T05:53:20.757Z,22.9
2018-07-19T05:54:26.207Z,22.9
2018-07-19T05:55:33.502Z,22.9
2018-07-19T05:56:38.668Z,22.9
2018-07-19T05:57:43.778Z,22.9
2018-07-19T05:58:49.210Z,22.9
2018-07-19T05:59:56.893Z,22.9
2018-07-19T06:01:05.064Z,22.9
2018-07-19T06:02:10.264Z,22.9
2018-07-19T06:03:15.451Z,22.9
2018-07-19T06:04:22.747Z,22.9
2018-07-19T06:05:29.869Z,22.8
2018-07-19T06:06:35.549Z,22.8
2018-07-19T06:07:40.764Z,22.8
2018-07-19T06:08:49.568Z,22.8
2018-07-19T06:09:56.622Z,22.8
2018-07-19T06:11:02.058Z,22.8
2018-07-19T06:12:06.669Z,22.8
2018-07-19T06:13:12.172Z,22.8
2018-07-19T06:14:17.836Z,22.8
2018-07-19T06:15:25.955Z,22.8
2018-07-19T06:16:31.116Z,22.8
2018-07-19T06:17:35.440Z,22.8
2018-07-19T06:18:41.319Z,22.8
2018-07-19T06:19:47.489Z,22.8
2018-07-19T06:20:52.945Z,22.8
2018-07-19T06:22:00.814Z,22.7
2018-07-19T06:23:05.728Z,22.7
2018-07-19T06:24:11.184Z,22.7
2018-07-19T06:25:19.768Z,22.7
2018-07-19T06:26:24.765Z,22.7
2018-07-19T06:27:30.115Z,22.7
2018-07-19T06:28:36.166Z,22.7
2018-07-19T06:29:44.670Z,22.7
2018-07-19T06:30:50.078Z,22.7
2018-07-19T06:31:55.232Z,22.7
2018-07-19T06:33:01.555Z,22.7
2018-07-19T06:34:06.124Z,22.7
2018-07-19T06:35:11.002Z,22.7
2018-07-19T06:36:16.218Z,22.7
2018-07-19T06:37:24.477Z,22.7
2018-07-19T06:38:29.947Z,22.7
2018-07-19T06:39:35.387Z,22.7
2018-07-19T06:40:42.892Z,22.7
2018-07-19T06:41:51.911Z,22.7
2018-07-19T06:42:57.326Z,22.6
2018-07-19T06:44:02.188Z,22.6
2018-07-19T06:45:09.421Z,22.6
2018-07-19T06:46:14.395Z,22.6
2018-07-19T06:47:19.846Z,22.6
2018-07-19T06:48:24.480Z,22.6
2018-07-19T06:49:31.652Z,22.6
2018-07-19T06:50:40.896Z,22.6
2018-07-19T06:51:46.179Z,22.6
2018-07-19T06:52:51.648Z,22.6
2018-07-19T06:53:57.506Z,22.6
2018-07-19T06:55:05.043Z,22.6
2018-07-19T06:56:10.198Z,22.5
2018-07-19T06:57:15.719Z,22.5
2018-07-19T06:58:21.596Z,22.5
2018-07-19T06:59:29.426Z,22.5
2018-07-19T07:00:35.205Z,22.5
2018-07-19T07:01:39.790Z,22.5
2018-07-19T07:02:44.949Z,22.5
2018-07-19T07:03:52.735Z,22.5
2018-07-19T07:04:57.611Z,22.5
2018-07-19T07:06:03.085Z,22.5
2018-07-19T07:07:08.303Z,22.5
2018-07-19T07:08:16.990Z,22.5
2018-07-19T07:09:21.923Z,22.5
2018-07-19T07:10:27.904Z,22.5
2018-07-19T07:11:33.114Z,22.5
2018-07-19T07:12:42.753Z,22.5
2018-07-19T07:13:47.959Z,22.5
2018-07-19T07:14:53.354Z,22.5
2018-07-19T07:15:59.446Z,22.5
2018-07-19T07:17:07.077Z,22.5
2018-07-19T07:18:12.512Z,22.5
2018-07-19T07:19:17.989Z,22.5
2018-07-19T07:20:23.245Z,22.4
2018-07-19T07:21:30.252Z,22.4
2018-07-19T07:22:35.476Z,22.4
2018-07-19T07:23:40.639Z,22.4
2018-07-19T07:24:46.391Z,22.4
2018-07-19T07:25:55.195Z,22.4
2018-07-19T07:27:00.097Z,22.4
2018-07-19T07:28:05.226Z,22.4
2018-07-19T07:29:10.709Z,22.4
2018-07-19T07:30:19.071Z,22.4
2018-07-19T07:31:24.556Z,22.4
2018-07-19T07:32:29.772Z,22.4
2018-07-19T07:33:35.597Z,22.4
2018-07-19T07:34:43.542Z,22.4
2018-07-19T07:35:50.255Z,22.4
2018-07-19T07:36:55.886Z,22.4
2018-07-19T07:38:01.057Z,22.4
2018-07-19T07:39:09.276Z,22.4
2018-07-19T07:40:14.776Z,22.4
2018-07-19T07:41:20.239Z,22.3
2018-07-19T07:42:27.346Z,22.3
2018-07-19T07:43:32.937Z,22.3
2018-07-19T07:44:38.420Z,22.3
2018-07-19T07:45:43.715Z,22.3
2018-07-19T07:46:50.293Z,22.3
2018-07-19T07:47:55.173Z,22.3
2018-07-19T07:49:00.325Z,22.3
2018-07-19T07:50:05.208Z,22.3
2018-07-19T07:51:10.870Z,22.3
2018-07-19T07:52:18.728Z,22.3
2018-07-19T07:53:24.315Z,22.3
2018-07-19T07:54:29.822Z,22.3
2018-07-19T07:55:35.013Z,22.3
2018-07-19T07:56:44.276Z,22.3
2018-07-19T07:57:49.998Z,22.3
2018-07-19T07:58:55.626Z,22.3
2018-07-19T08:00:00.811Z,22.3
2018-07-19T08:01:06.372Z,22.3
2018-07-19T08:02:15.310Z,22.3
2018-07-19T08:03:20.466Z,22.3
2018-07-19T08:04:26.343Z,22.3
2018-07-19T08:05:30.781Z,22.3
2018-07-19T08:06:40.407Z,22.3
2018-07-19T08:07:45.731Z,22.3
2018-07-19T08:08:50.906Z,22.3
2018-07-19T08:09:56.635Z,22.3
2018-07-19T08:11:04.576Z,22.3
2018-07-19T08:12:09.516Z,22.3
2018-07-19T08:13:14.750Z,22.3
2018-07-19T08:14:22.918Z,22.3
2018-07-19T08:15:28.329Z,22.3
2018-07-19T08:16:33.757Z,22.2
2018-07-19T08:17:38.950Z,22.3
2018-07-19T08:18:46.242Z,22.2
2018-07-19T08:19:51.666Z,22.2
2018-07-19T08:20:56.563Z,22.2
2018-07-19T08:22:01.792Z,22.2
2018-07-19T08:23:08.551Z,22.2
2018-07-19T08:24:14.008Z,22.2
2018-07-19T08:25:19.412Z,22.2
2018-07-19T08:26:24.318Z,22.2
2018-07-19T08:27:31.924Z,22.3
2018-07-19T08:28:37.424Z,22.2
2018-07-19T08:29:42.915Z,22.2
2018-07-19T08:30:48.758Z,22.2
2018-07-19T08:31:57.085Z,22.2
2018-07-19T08:33:02.776Z,22.2
2018-07-19T08:34:08.181Z,22.2
2018-07-19T08:35:13.328Z,22.2
2018-07-19T08:36:22.039Z,22.2
2018-07-19T08:37:28.305Z,22.2
2018-07-19T08:38:33.461Z,22.2
2018-07-19T08:39:39.192Z,22.2
2018-07-19T08:40:46.196Z,22.2
2018-07-19T08:41:52.353Z,22.2
2018-07-19T08:42:58.307Z,22.2
2018-07-19T08:44:03.734Z,22.2
2018-07-19T08:45:11.368Z,22.2
2018-07-19T08:46:17.500Z,22.2
2018-07-19T08:47:22.658Z,22.2
2018-07-19T08:48:28.648Z,22.2
2018-07-19T08:49:37.146Z,22.2
2018-07-19T08:50:42.592Z,22.2
2018-07-19T08:51:47.986Z,22.2
2018-07-19T08:52:53.220Z,22.2
2018-07-19T08:54:01.825Z,22.2
2018-07-19T08:55:07.572Z,22.2
2018-07-19T08:56:12.502Z,22.2
2018-07-19T08:57:17.664Z,22.2
2018-07-19T08:58:40.711Z,22.2
2018-07-19T08:59:49.452Z,22.2
2018-07-19T09:00:55.286Z,22.2
2018-07-19T09:02:00.773Z,22.2
2018-07-19T09:03:05.689Z,22.2
2018-07-19T09:04:13.232Z,22.2
2018-07-19T09:05:19.005Z,22.2
2018-07-19T09:06:24.436Z,22.2
2018-07-19T09:07:30.342Z,22.2
2018-07-19T09:08:38.309Z,22.2
2018-07-19T09:09:45.662Z,22.2
2018-07-19T09:10:50.652Z,22.2
2018-07-19T09:11:55.758Z,22.2
2018-07-19T09:13:02.201Z,22.2
2018-07-19T09:14:08.027Z,22.3
2018-07-19T09:15:13.327Z,22.3
2018-07-19T09:16:18.474Z,22.3
2018-07-19T09:17:23.906Z,22.3
2018-07-19T09:18:29.782Z,22.3
2018-07-19T09:19:38.552Z,22.3
2018-07-19T09:20:43.482Z,22.3
2018-07-19T09:21:49.269Z,22.3
2018-07-19T09:22:53.969Z,22.2
2018-07-19T09:24:00.416Z,22.2
2018-07-19T09:25:08.548Z,22.2
2018-07-19T09:26:13.701Z,22.2
2018-07-19T09:27:19.128Z,22.2
2018-07-19T09:28:24.913Z,22.2
2018-07-19T09:29:33.971Z,22.2
2018-07-19T09:30:39.748Z,22.2
2018-07-19T09:31:44.905Z,22.2
2018-07-19T09:32:49.870Z,22.2
2018-07-19T09:33:57.066Z,22.2
2018-07-19T09:35:05.835Z,22.2
2018-07-19T09:36:11.092Z,22.2
2018-07-19T09:37:16.491Z,22.2
2018-07-19T09:38:21.697Z,22.1
2018-07-19T09:39:31.133Z,22.2
2018-07-19T09:40:39.844Z,22.2
2018-07-19T09:41:44.496Z,22.2
2018-07-19T09:42:50.644Z,22.2
2018-07-19T09:43:55.886Z,22.2
2018-07-19T09:45:01.949Z,22.2
2018-07-19T09:46:06.231Z,22.2
2018-07-19T09:47:11.669Z,22.2
2018-07-19T09:48:17.122Z,22.2
2018-07-19T09:49:24.812Z,22.2
2018-07-19T09:50:29.512Z,22.2
2018-07-19T09:51:35.189Z,22.2
2018-07-19T09:52:40.889Z,22.2
2018-07-19T09:53:46.108Z,22.2
2018-07-19T09:54:54.371Z,22.2
2018-07-19T09:55:58.999Z,22.2
2018-07-19T09:57:04.533Z,22.1
2018-07-19T09:58:09.966Z,22.1
2018-07-19T09:59:19.414Z,22.1
2018-07-19T10:01:45.535Z,22.1
2018-07-19T10:02:51.472Z,22.1
2018-07-19T10:03:57.035Z,22.1
2018-07-19T10:05:03.967Z,22.1
2018-07-19T10:06:11.335Z,22.1
2018-07-19T10:07:16.591Z,22.1
2018-07-19T10:08:21.805Z,22.1
2018-07-19T10:09:27.488Z,22.1
2018-07-19T10:10:34.740Z,22.1
2018-07-19T10:11:42.225Z,22.1
2018-07-19T10:12:47.696Z,22.1
2018-07-19T10:13:52.861Z,22.1
2018-07-19T10:14:58.007Z,22.2
2018-07-19T10:16:07.218Z,22.2
2018-07-19T10:17:12.856Z,22.2
2018-07-19T10:18:18.218Z,22.2
2018-07-19T10:19:23.669Z,22.2
2018-07-19T10:20:28.038Z,22.2
2018-07-19T10:21:36.554Z,22.2
2018-07-19T10:22:42.418Z,22.2
2018-07-19T10:23:47.862Z,22.3
2018-07-19T10:24:53.709Z,22.3
2018-07-19T10:25:58.571Z,22.3
2018-07-19T10:27:06.072Z,22.3
2018-07-19T10:28:11.970Z,22.3
2018-07-19T10:29:17.399Z,22.3
2018-07-19T10:30:22.790Z,22.3
2018-07-19T10:31:28.557Z,22.3
2018-07-19T10:32:36.990Z,22.3
2018-07-19T10:33:44.426Z,22.3
2018-07-19T10:34:49.885Z,22.4
2018-07-19T10:35:55.178Z,22.4
2018-07-19T10:37:00.410Z,22.4
2018-07-19T10:38:06.377Z,22.4
2018-07-19T10:39:11.823Z,22.4
2018-07-19T10:40:17.224Z,22.4
2018-07-19T10:41:21.916Z,22.4
2018-07-19T10:42:27.771Z,22.4
2018-07-19T10:43:35.922Z,22.5
2018-07-19T10:44:43.985Z,22.5
2018-07-19T10:45:49.478Z,22.5
2018-07-19T10:46:54.583Z,22.5
2018-07-19T10:48:00.015Z,22.5
2018-07-19T10:49:04.844Z,22.5
2018-07-19T10:50:09.704Z,22.5
2018-07-19T10:51:14.672Z,22.5
2018-07-19T10:52:19.816Z,22.5
2018-07-19T10:53:25.240Z,22.6
2018-07-19T10:54:30.699Z,22.6
2018-07-19T10:55:35.572Z,22.6
2018-07-19T10:56:40.724Z,22.6
2018-07-19T10:57:46.428Z,22.6
2018-07-19T10:58:51.879Z,22.6
2018-07-19T10:59:56.750Z,22.6
2018-07-19T11:01:02.461Z,22.6
2018-07-19T11:02:07.081Z,22.7
2018-07-19T11:03:12.248Z,22.7
2018-07-19T11:04:17.923Z,22.7
2018-07-19T11:05:23.533Z,22.7
2018-07-19T11:06:28.704Z,22.7
2018-07-19T11:07:34.152Z,22.7
2018-07-19T11:08:39.600Z,22.7
2018-07-19T11:09:45.595Z,22.7
2018-07-19T11:10:51.635Z,22.7
2018-07-19T11:11:57.086Z,22.7
2018-07-19T11:13:02.247Z,22.7
2018-07-19T11:14:07.400Z,22.7
2018-07-19T11:15:12.613Z,22.7
2018-07-19T11:16:18.286Z,22.8
2018-07-19T11:17:23.742Z,22.8
2018-07-19T11:18:29.705Z,22.8
2018-07-19T11:19:34.002Z,22.8
2018-07-19T11:20:39.181Z,22.8
2018-07-19T11:21:44.899Z,22.8
2018-07-19T11:22:50.326Z,22.8
2018-07-19T11:23:54.628Z,22.8
2018-07-19T11:25:00.028Z,22.8
2018-07-19T11:26:05.196Z,22.8
2018-07-19T11:27:10.070Z,22.8
2018-07-19T11:28:15.414Z,22.9
2018-07-19T11:29:20.578Z,22.9
2018-07-19T11:30:26.228Z,22.9
2018-07-19T11:31:31.702Z,22.9
2018-07-19T11:32:38.046Z,22.9
2018-07-19T11:33:43.461Z,22.9
2018-07-19T11:34:48.950Z,22.9
2018-07-19T11:35:54.099Z,22.9
2018-07-19T11:36:59.549Z,22.9
2018-07-19T11:38:04.980Z,22.9
2018-07-19T11:39:10.144Z,22.9
2018-07-19T11:40:15.832Z,22.9
2018-07-19T11:41:21.257Z,22.9
2018-07-19T11:42:26.805Z,23
2018-07-19T11:43:32.296Z,23
2018-07-19T11:44:37.770Z,23
2018-07-19T11:45:43.026Z,23
2018-07-19T11:46:48.455Z,23
2018-07-19T11:47:53.679Z,23
2018-07-19T11:48:58.802Z,23
2018-07-19T11:50:04.052Z,23
2018-07-19T11:51:09.397Z,23
2018-07-19T11:52:14.949Z,23
2018-07-19T11:53:20.056Z,23
2018-07-19T11:55:45.296Z,23
2018-07-19T11:56:50.831Z,23
2018-07-19T11:57:56.233Z,23
2018-07-19T11:59:01.332Z,23
2018-07-19T12:00:05.654Z,23
2018-07-19T12:01:10.765Z,23
2018-07-19T12:02:15.343Z,23.1
2018-07-19T12:03:20.778Z,23.1
2018-07-19T12:04:26.549Z,23.1
2018-07-19T12:05:31.811Z,23.1
2018-07-19T12:06:37.219Z,23.1
2018-07-19T12:07:42.652Z,23.1
2018-07-19T12:08:47.825Z,23.1
2018-07-19T12:09:53.435Z,23.1
2018-07-19T12:10:58.938Z,23.1
2018-07-19T12:12:03.638Z,23.1
2018-07-19T12:13:09.151Z,23.1
2018-07-19T12:14:14.592Z,23.1
2018-07-19T12:15:19.821Z,23.1
2018-07-19T12:16:40.002Z,23.1
2018-07-19T12:17:45.761Z,23.1
2018-07-19T12:18:50.351Z,23.2
2018-07-19T12:19:55.502Z,23.2
2018-07-19T12:21:00.083Z,23.2
2018-07-19T12:22:04.526Z,23.2
2018-07-19T12:23:09.732Z,23.2
2018-07-19T12:24:15.171Z,23.2
2018-07-19T12:25:20.843Z,23.2
2018-07-19T12:26:26.306Z,23.2
2018-07-19T12:27:32.089Z,23.2
2018-07-19T12:28:36.955Z,23.2
2018-07-19T12:29:42.203Z,23.2
2018-07-19T12:30:47.832Z,23.2
2018-07-19T12:31:52.560Z,23.2
2018-07-19T12:32:57.717Z,23.2
2018-07-19T12:34:02.830Z,23.2
2018-07-19T12:35:08.067Z,23.2
2018-07-19T12:36:13.509Z,23.2
2018-07-19T12:37:18.622Z,23.2
2018-07-19T12:38:24.090Z,23.2
2018-07-19T12:39:29.455Z,23.3
2018-07-19T12:40:34.604Z,23.3
2018-07-19T12:41:39.530Z,23.3
2018-07-19T12:42:44.990Z,23.3
2018-07-19T12:43:50.470Z,23.3
2018-07-19T12:44:55.748Z,23.3
2018-07-19T12:46:01.561Z,23.3
2018-07-19T12:47:06.682Z,23.3
2018-07-19T12:48:11.870Z,23.3
2018-07-19T12:49:17.020Z,23.3
2018-07-19T12:50:22.448Z,23.3
2018-07-19T12:51:27.442Z,23.3
2018-07-19T12:52:32.612Z,23.3
2018-07-19T12:53:38.117Z,23.3
2018-07-19T12:54:43.533Z,23.3
2018-07-19T12:55:48.598Z,23.3
2018-07-19T12:56:53.522Z,23.3
2018-07-19T12:57:59.300Z,23.3
2018-07-19T12:59:04.476Z,23.3
2018-07-19T13:00:09.851Z,23.3
2018-07-19T13:01:15.904Z,23.3
2018-07-19T13:02:21.350Z,23.4
2018-07-19T13:03:27.095Z,23.4
2018-07-19T13:04:32.355Z,23.4
2018-07-19T13:05:37.827Z,23.4
2018-07-19T13:06:42.633Z,23.4
2018-07-19T13:07:47.543Z,23.4
2018-07-19T13:08:53.016Z,23.4
2018-07-19T13:09:58.574Z,23.4
2018-07-19T13:11:04.089Z,23.4
2018-07-19T13:12:08.728Z,23.4
2018-07-19T13:13:14.546Z,23.4
2018-07-19T13:14:20.058Z,23.4
2018-07-19T13:16:44.984Z,23.4
2018-07-19T13:17:50.182Z,23.4
2018-07-19T13:18:55.859Z,23.4
2018-07-19T13:20:01.088Z,23.4
2018-07-19T13:21:05.977Z,23.4
2018-07-19T13:22:11.917Z,23.4
2018-07-19T13:23:17.289Z,23.4
2018-07-19T13:24:22.519Z,23.4
2018-07-19T13:25:42.568Z,23.4
2018-07-19T13:26:47.472Z,23.4
2018-07-19T13:27:53.301Z,23.4
2018-07-19T13:28:58.759Z,23.4
2018-07-19T13:30:04.201Z,23.4
2018-07-19T13:31:09.365Z,23.4
2018-07-19T13:32:14.215Z,23.4
2018-07-19T13:33:19.693Z,23.4
2018-07-19T13:34:25.095Z,23.4
2018-07-19T13:35:29.315Z,23.4
2018-07-19T13:36:35.375Z,23.4
2018-07-19T13:37:40.894Z,23.4
2018-07-19T13:38:46.324Z,23.4
2018-07-19T13:39:52.034Z,23.4
2018-07-19T13:40:57.227Z,23.4
2018-07-19T13:42:02.379Z,23.4
2018-07-19T13:43:07.681Z,23.4
2018-07-19T13:44:13.144Z,23.4
2018-07-19T13:45:18.347Z,23.4
2018-07-19T13:46:23.554Z,23.5
2018-07-19T13:47:28.709Z,23.5
2018-07-19T13:48:34.390Z,23.5
2018-07-19T13:49:39.266Z,23.5
2018-07-19T13:50:44.411Z,23.5
2018-07-19T13:51:49.796Z,23.5
2018-07-19T13:52:55.280Z,23.5
2018-07-19T13:54:00.434Z,23.5
2018-07-19T13:55:05.699Z,23.5
2018-07-19T13:56:10.902Z,23.5
2018-07-19T13:57:16.431Z,23.5
2018-07-19T13:58:22.187Z,23.5
2018-07-19T13:59:27.769Z,23.5
2018-07-19T14:00:33.324Z,23.5
2018-07-19T14:01:38.238Z,23.5
2018-07-19T14:02:43.437Z,23.5
2018-07-19T14:03:49.032Z,23.5
2018-07-19T14:04:54.206Z,23.5
2018-07-19T14:05:58.800Z,23.5
2018-07-19T14:07:04.629Z,23.5
2018-07-19T14:08:09.792Z,23.5
2018-07-19T14:09:15.302Z,23.5
2018-07-19T14:10:21.133Z,23.5
2018-07-19T14:11:26.341Z,23.5
2018-07-19T14:12:31.760Z,23.5
2018-07-19T14:13:36.661Z,23.5
2018-07-19T14:14:41.521Z,23.5
2018-07-19T14:15:46.992Z,23.5
2018-07-19T14:16:51.814Z,23.4
2018-07-19T14:17:56.702Z,23.5
2018-07-19T14:19:02.344Z,23.4
2018-07-19T14:20:07.459Z,23.4
2018-07-19T14:21:12.661Z,23.3
2018-07-19T14:22:17.984Z,23.3
2018-07-19T14:23:23.048Z,23.3
2018-07-19T14:24:28.901Z,23.3
2018-07-19T14:25:34.474Z,23.3
2018-07-19T14:26:40.508Z,23.3
2018-07-19T14:27:45.910Z,23.3
2018-07-19T14:28:51.383Z,23.3
2018-07-19T14:29:56.328Z,23.4
2018-07-19T14:31:01.438Z,23.4
2018-07-19T14:32:06.445Z,23.4
2018-07-19T14:33:11.748Z,23.4
2018-07-19T14:34:17.164Z,23.4
2018-07-19T14:35:22.135Z,23.4
2018-07-19T14:36:27.711Z,23.4
2018-07-19T14:37:33.089Z,23.4
2018-07-19T14:38:38.276Z,23.4
2018-07-19T14:39:43.683Z,23.4
2018-07-19T14:40:49.110Z,23.3
2018-07-19T14:41:54.074Z,23.3
2018-07-19T14:42:59.246Z,23.4
2018-07-19T14:44:04.531Z,23.3
2018-07-19T14:45:09.732Z,23.3
2018-07-19T14:46:15.417Z,23.3
2018-07-19T14:47:20.371Z,23.3
2018-07-19T14:48:26.378Z,23.3